sensor_id;sensor_type;location;lat;lon;timestamp;pressure;altitude;pressure_sealevel;temperature;humidity
8398;BME280;4236;54.504;9.588;2023-05-20T00:00:56;102932.50;;;9.85;100.00
8398;BME280;4236;54.504;9.588;2023-05-20T00:03:24;102940.03;;;9.80;100.00
8398;BME280;4236;54.504;9.588;2023-05-20T00:05:52;102927.72;;;9.79;100.00
8398;BME280;4236;54.504;9.588;2023-05-20T00:08:21;102930.66;;;9.76;100.00
8398;BME280;4236;54.504;9.588;2023-05-20T00:10:49;102933.16;;;9.77;100.00
8398;BME280;4236;54.504;9.588;2023-05-20T00:13:16;102929.66;;;9.77;100.00
8398;BME280;4236;54.504;9.588;2023-05-20T00:15:44;102938.66;;;9.76;100.00
8398;BME280;4236;54.504;9.588;2023-05-20T00:18:12;102937.22;;;9.72;100.00
8398;BME280;4236;54.504;9.588;2023-05-20T00:20:40;102940.88;;;9.71;100.00
8398;BME280;4236;54.504;9.588;2023-05-20T00:23:07;102946.06;;;9.72;100.00
8398;BME280;4236;54.504;9.588;2023-05-20T00:25:36;102942.72;;;9.70;100.00
8398;BME280;4236;54.504;9.588;2023-05-20T00:28:05;102936.25;;;9.73;100.00
8398;BME280;4236;54.504;9.588;2023-05-20T00:30:32;102935.25;;;9.74;100.00
8398;BME280;4236;54.504;9.588;2023-05-20T00:33:00;102945.91;;;9.74;100.00
8398;BME280;4236;54.504;9.588;2023-05-20T00:35:28;102938.94;;;9.73;100.00
8398;BME280;4236;54.504;9.588;2023-05-20T00:37:55;102935.69;;;9.69;100.00
8398;BME280;4236;54.504;9.588;2023-05-20T00:40:23;102936.81;;;9.67;100.00
8398;BME280;4236;54.504;9.588;2023-05-20T00:42:53;102932.34;;;9.67;100.00
8398;BME280;4236;54.504;9.588;2023-05-20T00:45:21;102927.28;;;9.64;100.00
8398;BME280;4236;54.504;9.588;2023-05-20T00:47:49;102924.88;;;9.61;100.00
8398;BME280;4236;54.504;9.588;2023-05-20T00:50:16;102928.66;;;9.59;100.00
8398;BME280;4236;54.504;9.588;2023-05-20T00:52:44;102925.28;;;9.57;100.00
8398;BME280;4236;54.504;9.588;2023-05-20T00:55:13;102924.44;;;9.56;100.00
8398;BME280;4236;54.504;9.588;2023-05-20T00:57:41;102934.53;;;9.53;100.00
8398;BME280;4236;54.504;9.588;2023-05-20T01:00:11;102926.69;;;9.51;100.00
8398;BME280;4236;54.504;9.588;2023-05-20T01:02:40;102926.09;;;9.48;100.00
8398;BME280;4236;54.504;9.588;2023-05-20T01:05:08;102926.25;;;9.46;100.00
8398;BME280;4236;54.504;9.588;2023-05-20T01:07:36;102928.91;;;9.46;100.00
8398;BME280;4236;54.504;9.588;2023-05-20T01:10:05;102926.38;;;9.44;100.00
8398;BME280;4236;54.504;9.588;2023-05-20T01:12:36;102924.72;;;9.43;100.00
8398;BME280;4236;54.504;9.588;2023-05-20T01:15:08;102917.53;;;9.44;100.00
8398;BME280;4236;54.504;9.588;2023-05-20T01:17:39;102916.00;;;9.41;100.00
8398;BME280;4236;54.504;9.588;2023-05-20T01:20:11;102920.88;;;9.36;100.00
8398;BME280;4236;54.504;9.588;2023-05-20T01:22:47;102923.81;;;9.33;100.00
8398;BME280;4236;54.504;9.588;2023-05-20T01:25:15;102928.31;;;9.33;100.00
8398;BME280;4236;54.504;9.588;2023-05-20T01:27:43;102923.25;;;9.30;100.00
8398;BME280;4236;54.504;9.588;2023-05-20T01:30:12;102926.06;;;9.28;100.00
8398;BME280;4236;54.504;9.588;2023-05-20T01:32:43;102929.53;;;9.29;100.00
8398;BME280;4236;54.504;9.588;2023-05-20T01:35:13;102927.88;;;9.28;100.00
8398;BME280;4236;54.504;9.588;2023-05-20T01:37:43;102926.19;;;9.27;100.00
8398;BME280;4236;54.504;9.588;2023-05-20T01:40:14;102920.28;;;9.23;100.00
8398;BME280;4236;54.504;9.588;2023-05-20T01:42:42;102919.16;;;9.16;100.00
8398;BME280;4236;54.504;9.588;2023-05-20T01:45:11;102924.88;;;9.12;100.00
8398;BME280;4236;54.504;9.588;2023-05-20T01:47:39;102920.91;;;9.06;100.00
8398;BME280;4236;54.504;9.588;2023-05-20T01:50:07;102912.34;;;9.03;100.00
8398;BME280;4236;54.504;9.588;2023-05-20T01:52:35;102917.09;;;8.99;100.00
8398;BME280;4236;54.504;9.588;2023-05-20T01:55:03;102907.56;;;8.97;100.00
8398;BME280;4236;54.504;9.588;2023-05-20T01:57:32;102903.63;;;8.91;100.00
8398;BME280;4236;54.504;9.588;2023-05-20T02:00:00;102905.69;;;8.87;100.00
8398;BME280;4236;54.504;9.588;2023-05-20T02:02:29;102898.56;;;8.88;100.00
8398;BME280;4236;54.504;9.588;2023-05-20T02:04:56;102901.22;;;8.88;100.00
8398;BME280;4236;54.504;9.588;2023-05-20T02:07:24;102898.72;;;8.86;100.00
8398;BME280;4236;54.504;9.588;2023-05-20T02:09:52;102908.50;;;8.86;100.00
8398;BME280;4236;54.504;9.588;2023-05-20T02:12:20;102905.97;;;8.84;100.00
8398;BME280;4236;54.504;9.588;2023-05-20T02:14:48;102906.81;;;8.85;100.00
8398;BME280;4236;54.504;9.588;2023-05-20T02:17:16;102890.00;;;8.84;100.00
8398;BME280;4236;54.504;9.588;2023-05-20T02:19:44;102903.44;;;8.83;100.00
8398;BME280;4236;54.504;9.588;2023-05-20T02:22:12;102905.00;;;8.85;100.00
8398;BME280;4236;54.504;9.588;2023-05-20T02:24:40;102907.41;;;8.88;100.00
8398;BME280;4236;54.504;9.588;2023-05-20T02:27:09;102908.69;;;8.94;100.00
8398;BME280;4236;54.504;9.588;2023-05-20T02:29:37;102917.25;;;8.98;100.00
8398;BME280;4236;54.504;9.588;2023-05-20T02:32:06;102911.78;;;8.99;100.00
8398;BME280;4236;54.504;9.588;2023-05-20T02:34:34;102915.44;;;8.98;100.00
8398;BME280;4236;54.504;9.588;2023-05-20T02:37:02;102899.19;;;9.01;100.00
8398;BME280;4236;54.504;9.588;2023-05-20T02:39:29;102904.53;;;9.01;100.00
8398;BME280;4236;54.504;9.588;2023-05-20T02:41:57;102909.56;;;9.04;100.00
8398;BME280;4236;54.504;9.588;2023-05-20T02:44:25;102899.63;;;9.06;100.00
8398;BME280;4236;54.504;9.588;2023-05-20T02:46:52;102897.81;;;9.07;100.00
8398;BME280;4236;54.504;9.588;2023-05-20T02:49:21;102886.06;;;9.09;100.00
8398;BME280;4236;54.504;9.588;2023-05-20T02:51:49;102883.53;;;9.08;100.00
8398;BME280;4236;54.504;9.588;2023-05-20T02:54:17;102886.06;;;9.09;100.00
8398;BME280;4236;54.504;9.588;2023-05-20T02:56:45;102886.31;;;9.06;100.00
8398;BME280;4236;54.504;9.588;2023-05-20T02:59:12;102891.63;;;9.06;100.00
8398;BME280;4236;54.504;9.588;2023-05-20T03:01:40;102889.41;;;9.02;100.00
8398;BME280;4236;54.504;9.588;2023-05-20T03:04:08;102888.66;;;9.00;100.00
8398;BME280;4236;54.504;9.588;2023-05-20T03:06:38;102887.56;;;9.02;100.00
8398;BME280;4236;54.504;9.588;2023-05-20T03:09:10;102889.25;;;9.03;100.00
8398;BME280;4236;54.504;9.588;2023-05-20T03:11:38;102893.72;;;9.03;100.00
8398;BME280;4236;54.504;9.588;2023-05-20T03:14:05;102895.16;;;9.07;100.00
8398;BME280;4236;54.504;9.588;2023-05-20T03:16:33;102897.66;;;9.08;100.00
8398;BME280;4236;54.504;9.588;2023-05-20T03:19:01;102903.44;;;9.13;100.00
8398;BME280;4236;54.504;9.588;2023-05-20T03:21:29;102892.81;;;9.13;100.00
8398;BME280;4236;54.504;9.588;2023-05-20T03:23:59;102898.13;;;9.13;100.00
8398;BME280;4236;54.504;9.588;2023-05-20T03:26:26;102892.53;;;9.16;100.00
8398;BME280;4236;54.504;9.588;2023-05-20T03:28:55;102899.13;;;9.22;100.00
8398;BME280;4236;54.504;9.588;2023-05-20T03:31:23;102899.97;;;9.22;100.00
8398;BME280;4236;54.504;9.588;2023-05-20T03:33:51;102902.09;;;9.28;100.00
8398;BME280;4236;54.504;9.588;2023-05-20T03:36:19;102902.09;;;9.38;100.00
8398;BME280;4236;54.504;9.588;2023-05-20T03:38:46;102900.88;;;9.42;100.00
8398;BME280;4236;54.504;9.588;2023-05-20T03:41:16;102903.81;;;9.49;100.00
8398;BME280;4236;54.504;9.588;2023-05-20T03:43:43;102894.03;;;9.49;100.00
8398;BME280;4236;54.504;9.588;2023-05-20T03:46:11;102895.84;;;9.58;100.00
8398;BME280;4236;54.504;9.588;2023-05-20T03:48:39;102889.81;;;9.66;100.00
8398;BME280;4236;54.504;9.588;2023-05-20T03:51:06;102892.78;;;9.72;100.00
8398;BME280;4236;54.504;9.588;2023-05-20T03:53:34;102892.81;;;9.82;100.00
8398;BME280;4236;54.504;9.588;2023-05-20T03:56:02;102895.59;;;9.80;100.00
8398;BME280;4236;54.504;9.588;2023-05-20T03:58:31;102894.75;;;9.80;100.00
8398;BME280;4236;54.504;9.588;2023-05-20T04:01:00;102893.78;;;9.90;100.00
8398;BME280;4236;54.504;9.588;2023-05-20T04:03:28;102889.16;;;9.92;100.00
8398;BME280;4236;54.504;9.588;2023-05-20T04:05:56;102883.69;;;9.94;100.00
8398;BME280;4236;54.504;9.588;2023-05-20T04:08:24;102885.91;;;9.98;100.00
8398;BME280;4236;54.504;9.588;2023-05-20T04:10:54;102884.53;;;9.94;100.00
8398;BME280;4236;54.504;9.588;2023-05-20T04:13:23;102885.63;;;10.01;100.00
8398;BME280;4236;54.504;9.588;2023-05-20T04:15:52;102881.72;;;10.06;100.00
8398;BME280;4236;54.504;9.588;2023-05-20T04:18:20;102883.09;;;10.10;100.00
8398;BME280;4236;54.504;9.588;2023-05-20T04:20:48;102886.91;;;10.17;100.00
8398;BME280;4236;54.504;9.588;2023-05-20T04:23:16;102891.00;;;10.21;100.00
8398;BME280;4236;54.504;9.588;2023-05-20T04:25:44;102890.00;;;10.31;100.00
8398;BME280;4236;54.504;9.588;2023-05-20T04:28:11;102896.00;;;10.52;100.00
8398;BME280;4236;54.504;9.588;2023-05-20T04:30:41;102895.22;;;10.70;100.00
8398;BME280;4236;54.504;9.588;2023-05-20T04:33:12;102887.84;;;10.91;100.00
8398;BME280;4236;54.504;9.588;2023-05-20T04:35:40;102879.31;;;11.15;100.00
8398;BME280;4236;54.504;9.588;2023-05-20T04:38:09;102878.31;;;11.43;100.00
8398;BME280;4236;54.504;9.588;2023-05-20T04:40:37;102885.00;;;11.74;100.00
8398;BME280;4236;54.504;9.588;2023-05-20T04:43:04;102877.69;;;12.11;100.00
8398;BME280;4236;54.504;9.588;2023-05-20T04:45:32;102876.09;;;12.44;100.00
8398;BME280;4236;54.504;9.588;2023-05-20T04:48:02;102880.97;;;12.74;100.00
8398;BME280;4236;54.504;9.588;2023-05-20T04:50:31;102879.34;;;13.23;100.00
8398;BME280;4236;54.504;9.588;2023-05-20T04:52:58;102874.13;;;13.56;100.00
8398;BME280;4236;54.504;9.588;2023-05-20T04:55:26;102864.75;;;13.76;100.00
8398;BME280;4236;54.504;9.588;2023-05-20T04:57:54;102871.13;;;14.23;100.00
8398;BME280;4236;54.504;9.588;2023-05-20T05:00:22;102862.19;;;14.71;100.00
8398;BME280;4236;54.504;9.588;2023-05-20T05:02:50;102862.38;;;14.62;100.00
8398;BME280;4236;54.504;9.588;2023-05-20T05:05:17;102861.22;;;15.03;100.00
8398;BME280;4236;54.504;9.588;2023-05-20T05:07:47;102866.19;;;15.22;100.00
8398;BME280;4236;54.504;9.588;2023-05-20T05:10:14;102861.41;;;15.32;100.00
8398;BME280;4236;54.504;9.588;2023-05-20T05:12:42;102865.81;;;14.86;100.00
8398;BME280;4236;54.504;9.588;2023-05-20T05:15:10;102870.38;;;15.25;100.00
8398;BME280;4236;54.504;9.588;2023-05-20T05:17:37;102852.56;;;15.55;100.00
8398;BME280;4236;54.504;9.588;2023-05-20T05:20:07;102851.31;;;15.65;100.00
8398;BME280;4236;54.504;9.588;2023-05-20T05:22:35;102860.78;;;15.84;100.00
8398;BME280;4236;54.504;9.588;2023-05-20T05:25:07;102861.06;;;15.89;100.00
8398;BME280;4236;54.504;9.588;2023-05-20T05:27:36;102855.31;;;16.15;100.00
8398;BME280;4236;54.504;9.588;2023-05-20T05:30:05;102857.56;;;16.63;100.00
8398;BME280;4236;54.504;9.588;2023-05-20T05:32:33;102853.06;;;17.14;100.00
8398;BME280;4236;54.504;9.588;2023-05-20T05:35:01;102850.03;;;17.24;100.00
8398;BME280;4236;54.504;9.588;2023-05-20T05:37:32;102845.81;;;17.72;99.58
8398;BME280;4236;54.504;9.588;2023-05-20T05:39:59;102848.34;;;18.22;100.00
8398;BME280;4236;54.504;9.588;2023-05-20T05:42:28;102857.00;;;18.39;88.58
8398;BME280;4236;54.504;9.588;2023-05-20T05:44:58;102847.22;;;19.06;87.26
8398;BME280;4236;54.504;9.588;2023-05-20T05:47:25;102842.53;;;19.28;82.72
8398;BME280;4236;54.504;9.588;2023-05-20T05:49:57;102836.19;;;19.01;81.59
8398;BME280;4236;54.504;9.588;2023-05-20T05:52:26;102831.41;;;19.03;80.53
8398;BME280;4236;54.504;9.588;2023-05-20T05:54:54;102838.88;;;19.55;83.36
8398;BME280;4236;54.504;9.588;2023-05-20T05:57:21;102836.00;;;19.76;76.92
8398;BME280;4236;54.504;9.588;2023-05-20T05:59:50;102831.22;;;20.11;76.20
8398;BME280;4236;54.504;9.588;2023-05-20T06:02:18;102827.47;;;20.25;75.11
8398;BME280;4236;54.504;9.588;2023-05-20T06:04:46;102825.78;;;20.31;71.11
8398;BME280;4236;54.504;9.588;2023-05-20T06:07:14;102830.19;;;20.38;75.89
8398;BME280;4236;54.504;9.588;2023-05-20T06:09:42;102833.50;;;20.40;70.79
8398;BME280;4236;54.504;9.588;2023-05-20T06:12:09;102841.44;;;21.06;67.25
8398;BME280;4236;54.504;9.588;2023-05-20T06:14:39;102835.75;;;21.21;66.35
8398;BME280;4236;54.504;9.588;2023-05-20T06:17:08;102842.84;;;21.60;62.83
8398;BME280;4236;54.504;9.588;2023-05-20T06:19:36;102854.59;;;21.85;62.47
8398;BME280;4236;54.504;9.588;2023-05-20T06:22:03;102846.88;;;21.88;56.52
8398;BME280;4236;54.504;9.588;2023-05-20T06:24:33;102848.09;;;21.55;54.43
8398;BME280;4236;54.504;9.588;2023-05-20T06:27:01;102861.56;;;22.05;52.98
8398;BME280;4236;54.504;9.588;2023-05-20T06:29:29;102851.09;;;22.09;53.06
8398;BME280;4236;54.504;9.588;2023-05-20T06:31:56;102853.59;;;21.79;51.75
8398;BME280;4236;54.504;9.588;2023-05-20T06:34:26;102846.75;;;21.70;50.37
8398;BME280;4236;54.504;9.588;2023-05-20T06:36:53;102854.09;;;21.32;50.53
8398;BME280;4236;54.504;9.588;2023-05-20T06:39:21;102858.13;;;21.03;51.69
8398;BME280;4236;54.504;9.588;2023-05-20T06:41:49;102853.53;;;21.17;51.47
8398;BME280;4236;54.504;9.588;2023-05-20T06:44:17;102848.97;;;21.48;51.37
8398;BME280;4236;54.504;9.588;2023-05-20T06:46:45;102861.16;;;21.71;51.35
8398;BME280;4236;54.504;9.588;2023-05-20T06:49:13;102851.09;;;21.46;51.87
8398;BME280;4236;54.504;9.588;2023-05-20T06:51:42;102848.00;;;21.36;52.35
8398;BME280;4236;54.504;9.588;2023-05-20T06:54:10;102830.53;;;21.57;50.43
8398;BME280;4236;54.504;9.588;2023-05-20T06:56:38;102848.44;;;21.33;51.17
8398;BME280;4236;54.504;9.588;2023-05-20T06:59:05;102856.06;;;21.05;52.04
8398;BME280;4236;54.504;9.588;2023-05-20T07:01:33;102840.59;;;21.06;52.80
8398;BME280;4236;54.504;9.588;2023-05-20T07:04:01;102849.88;;;21.36;53.41
8398;BME280;4236;54.504;9.588;2023-05-20T07:06:28;102842.09;;;21.46;53.50
8398;BME280;4236;54.504;9.588;2023-05-20T07:08:58;102851.44;;;21.57;52.43
8398;BME280;4236;54.504;9.588;2023-05-20T07:11:26;102849.22;;;21.47;53.30
8398;BME280;4236;54.504;9.588;2023-05-20T07:13:54;102853.94;;;21.20;53.38
8398;BME280;4236;54.504;9.588;2023-05-20T07:16:22;102845.28;;;21.36;53.62
8398;BME280;4236;54.504;9.588;2023-05-20T07:18:50;102844.69;;;21.34;54.11
8398;BME280;4236;54.504;9.588;2023-05-20T07:21:18;102845.06;;;20.93;55.38
8398;BME280;4236;54.504;9.588;2023-05-20T07:23:45;102848.53;;;21.07;57.07
8398;BME280;4236;54.504;9.588;2023-05-20T07:26:14;102855.59;;;21.21;57.11
8398;BME280;4236;54.504;9.588;2023-05-20T07:28:42;102841.78;;;20.78;58.65
8398;BME280;4236;54.504;9.588;2023-05-20T07:31:10;102834.28;;;21.25;58.38
8398;BME280;4236;54.504;9.588;2023-05-20T07:33:38;102845.66;;;20.95;58.02
8398;BME280;4236;54.504;9.588;2023-05-20T07:36:06;102831.09;;;20.83;59.12
8398;BME280;4236;54.504;9.588;2023-05-20T07:38:36;102825.00;;;20.94;58.50
8398;BME280;4236;54.504;9.588;2023-05-20T07:41:06;102827.72;;;20.94;59.25
8398;BME280;4236;54.504;9.588;2023-05-20T07:43:35;102829.25;;;20.77;59.34
8398;BME280;4236;54.504;9.588;2023-05-20T07:46:03;102822.03;;;20.45;59.99
8398;BME280;4236;54.504;9.588;2023-05-20T07:48:31;102818.94;;;19.82;60.80
8398;BME280;4236;54.504;9.588;2023-05-20T07:50:58;102817.22;;;19.68;62.22
8398;BME280;4236;54.504;9.588;2023-05-20T07:53:26;102830.78;;;19.75;64.68
8398;BME280;4236;54.504;9.588;2023-05-20T07:55:54;102838.88;;;19.01;67.72
8398;BME280;4236;54.504;9.588;2023-05-20T07:58:22;102824.94;;;18.98;69.64
8398;BME280;4236;54.504;9.588;2023-05-20T08:00:51;102833.19;;;18.83;74.13
8398;BME280;4236;54.504;9.588;2023-05-20T08:03:19;102828.72;;;18.62;78.01
8398;BME280;4236;54.504;9.588;2023-05-20T08:05:48;102827.84;;;18.28;80.64
8398;BME280;4236;54.504;9.588;2023-05-20T08:08:16;102835.44;;;18.17;81.44
8398;BME280;4236;54.504;9.588;2023-05-20T08:10:44;102835.91;;;18.00;83.09
8398;BME280;4236;54.504;9.588;2023-05-20T08:13:11;102825.66;;;17.89;83.62
8398;BME280;4236;54.504;9.588;2023-05-20T08:15:39;102840.03;;;17.75;90.80
8398;BME280;4236;54.504;9.588;2023-05-20T08:18:08;102822.81;;;17.76;90.42
8398;BME280;4236;54.504;9.588;2023-05-20T08:20:36;102832.50;;;17.49;94.60
8398;BME280;4236;54.504;9.588;2023-05-20T08:23:04;102831.94;;;17.75;93.22
8398;BME280;4236;54.504;9.588;2023-05-20T08:25:31;102820.94;;;17.97;93.67
8398;BME280;4236;54.504;9.588;2023-05-20T08:28:00;102824.78;;;18.09;91.90
8398;BME280;4236;54.504;9.588;2023-05-20T08:30:29;102824.63;;;18.17;93.14
8398;BME280;4236;54.504;9.588;2023-05-20T08:32:57;102822.09;;;18.09;94.89
8398;BME280;4236;54.504;9.588;2023-05-20T08:35:26;102824.81;;;17.67;98.84
8398;BME280;4236;54.504;9.588;2023-05-20T08:37:54;102821.22;;;17.60;97.42
8398;BME280;4236;54.504;9.588;2023-05-20T08:40:22;102831.88;;;17.47;100.00
8398;BME280;4236;54.504;9.588;2023-05-20T08:42:50;102824.19;;;17.29;100.00
8398;BME280;4236;54.504;9.588;2023-05-20T08:45:19;102820.19;;;17.25;100.00
8398;BME280;4236;54.504;9.588;2023-05-20T08:47:51;102828.97;;;17.12;100.00
8398;BME280;4236;54.504;9.588;2023-05-20T08:50:19;102821.03;;;17.26;100.00
8398;BME280;4236;54.504;9.588;2023-05-20T08:52:48;102818.84;;;17.00;100.00
8398;BME280;4236;54.504;9.588;2023-05-20T08:55:18;102832.53;;;16.98;100.00
8398;BME280;4236;54.504;9.588;2023-05-20T08:57:50;102820.78;;;17.06;100.00
8398;BME280;4236;54.504;9.588;2023-05-20T09:00:20;102819.56;;;17.08;100.00
8398;BME280;4236;54.504;9.588;2023-05-20T09:02:52;102808.84;;;17.30;100.00
8398;BME280;4236;54.504;9.588;2023-05-20T09:05:20;102813.13;;;17.24;100.00
8398;BME280;4236;54.504;9.588;2023-05-20T09:07:50;102819.38;;;17.25;100.00
8398;BME280;4236;54.504;9.588;2023-05-20T09:10:18;102807.94;;;17.23;100.00
8398;BME280;4236;54.504;9.588;2023-05-20T09:12:46;102808.41;;;17.26;100.00
8398;BME280;4236;54.504;9.588;2023-05-20T09:15:14;102806.25;;;17.22;99.10
8398;BME280;4236;54.504;9.588;2023-05-20T09:17:41;102804.03;;;17.25;96.09
8398;BME280;4236;54.504;9.588;2023-05-20T09:20:10;102792.00;;;17.28;92.88
8398;BME280;4236;54.504;9.588;2023-05-20T09:22:38;102795.63;;;17.35;92.26
8398;BME280;4236;54.504;9.588;2023-05-20T09:25:08;102794.59;;;17.36;91.45
8398;BME280;4236;54.504;9.588;2023-05-20T09:27:38;102789.31;;;17.28;90.58
8398;BME280;4236;54.504;9.588;2023-05-20T09:30:07;102798.22;;;17.64;91.60
8398;BME280;4236;54.504;9.588;2023-05-20T09:32:38;102795.53;;;17.64;85.63
8398;BME280;4236;54.504;9.588;2023-05-20T09:35:06;102796.13;;;17.45;89.48
8398;BME280;4236;54.504;9.588;2023-05-20T09:37:35;102794.47;;;17.44;89.08
8398;BME280;4236;54.504;9.588;2023-05-20T09:40:04;102798.03;;;17.30;90.48
8398;BME280;4236;54.504;9.588;2023-05-20T09:42:38;102791.66;;;17.52;89.72
8398;BME280;4236;54.504;9.588;2023-05-20T09:45:07;102789.97;;;17.51;92.01
8398;BME280;4236;54.504;9.588;2023-05-20T09:47:37;102793.34;;;17.38;93.14
8398;BME280;4236;54.504;9.588;2023-05-20T09:50:07;102788.00;;;17.59;88.01
8398;BME280;4236;54.504;9.588;2023-05-20T09:52:36;102784.78;;;17.49;89.60
8398;BME280;4236;54.504;9.588;2023-05-20T09:55:05;102792.50;;;17.52;87.71
8398;BME280;4236;54.504;9.588;2023-05-20T09:57:34;102788.84;;;17.60;87.85
8398;BME280;4236;54.504;9.588;2023-05-20T10:00:04;102779.31;;;17.43;92.80
8398;BME280;4236;54.504;9.588;2023-05-20T10:02:34;102765.13;;;17.77;91.63
8398;BME280;4236;54.504;9.588;2023-05-20T10:05:06;102779.44;;;17.77;88.09
8398;BME280;4236;54.504;9.588;2023-05-20T10:08:03;102798.03;;;17.65;80.83
8398;BME280;4236;54.504;9.588;2023-05-20T10:10:43;102773.34;;;17.68;77.87
8398;BME280;4236;54.504;9.588;2023-05-20T10:13:20;102786.81;;;17.90;79.21
8398;BME280;4236;54.504;9.588;2023-05-20T10:15:59;102772.47;;;17.89;79.06
8398;BME280;4236;54.504;9.588;2023-05-20T10:18:39;102771.41;;;18.11;nan
8398;BME280;4236;54.504;9.588;2023-05-20T10:21:17;102777.75;;;17.97;77.33
8398;BME280;4236;54.504;9.588;2023-05-20T10:23:47;102776.19;;;17.82;76.21
8398;BME280;4236;54.504;9.588;2023-05-20T10:26:15;102780.63;;;17.68;73.20
8398;BME280;4236;54.504;9.588;2023-05-20T10:28:43;102772.47;;;17.83;73.26
8398;BME280;4236;54.504;9.588;2023-05-20T10:31:17;102771.78;;;17.81;76.45
8398;BME280;4236;54.504;9.588;2023-05-20T10:33:45;102765.81;;;18.13;75.53
8398;BME280;4236;54.504;9.588;2023-05-20T10:36:25;102765.19;;;18.45;70.71
8398;BME280;4236;54.504;9.588;2023-05-20T10:38:53;102764.97;;;18.47;69.06
8398;BME280;4236;54.504;9.588;2023-05-20T10:41:23;102759.59;;;18.12;66.83
8398;BME280;4236;54.504;9.588;2023-05-20T10:44:01;102760.50;;;18.26;64.42
8398;BME280;4236;54.504;9.588;2023-05-20T10:46:32;102755.22;;;17.84;64.56
8398;BME280;4236;54.504;9.588;2023-05-20T10:49:20;102743.50;;;17.98;65.89
8398;BME280;4236;54.504;9.588;2023-05-20T10:51:53;102734.13;;;18.28;64.95
8398;BME280;4236;54.504;9.588;2023-05-20T10:54:21;102732.22;;;18.56;65.25
8398;BME280;4236;54.504;9.588;2023-05-20T10:56:50;102732.53;;;18.40;64.89
8398;BME280;4236;54.504;9.588;2023-05-20T10:59:19;102733.78;;;18.10;63.65
8398;BME280;4236;54.504;9.588;2023-05-20T11:01:49;102730.56;;;18.21;64.24
8398;BME280;4236;54.504;9.588;2023-05-20T11:04:17;102731.53;;;18.13;63.01
8398;BME280;4236;54.504;9.588;2023-05-20T11:06:49;102727.22;;;18.19;63.11
8398;BME280;4236;54.504;9.588;2023-05-20T11:09:17;102740.94;;;18.17;63.04
8398;BME280;4236;54.504;9.588;2023-05-20T11:11:45;102721.63;;;18.20;61.85
8398;BME280;4236;54.504;9.588;2023-05-20T11:14:13;102733.81;;;18.44;63.24
8398;BME280;4236;54.504;9.588;2023-05-20T11:16:42;102729.59;;;18.69;60.99
8398;BME280;4236;54.504;9.588;2023-05-20T11:19:14;102712.00;;;18.93;60.37
8398;BME280;4236;54.504;9.588;2023-05-20T11:21:43;102737.81;;;19.02;60.05
8398;BME280;4236;54.504;9.588;2023-05-20T11:24:11;102721.13;;;18.92;59.42
8398;BME280;4236;54.504;9.588;2023-05-20T11:26:39;102700.34;;;18.93;59.72
8398;BME280;4236;54.504;9.588;2023-05-20T11:29:07;102716.50;;;18.73;59.50
8398;BME280;4236;54.504;9.588;2023-05-20T11:31:36;102712.81;;;18.94;62.60
8398;BME280;4236;54.504;9.588;2023-05-20T11:34:04;102701.44;;;19.24;63.30
8398;BME280;4236;54.504;9.588;2023-05-20T11:36:33;102711.19;;;18.99;64.57
8398;BME280;4236;54.504;9.588;2023-05-20T11:39:01;102699.56;;;19.25;62.93
8398;BME280;4236;54.504;9.588;2023-05-20T11:41:30;102693.94;;;19.13;60.27
8398;BME280;4236;54.504;9.588;2023-05-20T11:43:58;102691.88;;;19.22;60.78
8398;BME280;4236;54.504;9.588;2023-05-20T11:46:27;102701.25;;;19.26;61.00
8398;BME280;4236;54.504;9.588;2023-05-20T11:48:55;102696.22;;;19.10;59.25
8398;BME280;4236;54.504;9.588;2023-05-20T11:51:23;102689.13;;;19.02;63.24
8398;BME280;4236;54.504;9.588;2023-05-20T11:53:58;102696.06;;;18.57;63.19
8398;BME280;4236;54.504;9.588;2023-05-20T11:56:27;102684.66;;;18.62;62.86
8398;BME280;4236;54.504;9.588;2023-05-20T11:58:56;102689.34;;;19.01;62.47
8398;BME280;4236;54.504;9.588;2023-05-20T12:01:25;102688.50;;;19.07;63.83
8398;BME280;4236;54.504;9.588;2023-05-20T12:03:54;102702.41;;;18.84;61.92
8398;BME280;4236;54.504;9.588;2023-05-20T12:06:22;102686.84;;;19.12;63.31
8398;BME280;4236;54.504;9.588;2023-05-20T12:08:50;102689.56;;;19.39;61.85
8398;BME280;4236;54.504;9.588;2023-05-20T12:11:19;102686.22;;;19.04;61.43
8398;BME280;4236;54.504;9.588;2023-05-20T12:13:47;102673.94;;;19.01;60.39
8398;BME280;4236;54.504;9.588;2023-05-20T12:16:15;102694.91;;;18.86;59.76
8398;BME280;4236;54.504;9.588;2023-05-20T12:18:43;102654.38;;;18.86;58.78
8398;BME280;4236;54.504;9.588;2023-05-20T12:21:11;102689.09;;;18.89;59.83
8398;BME280;4236;54.504;9.588;2023-05-20T12:23:39;102684.28;;;18.71;59.12
8398;BME280;4236;54.504;9.588;2023-05-20T12:26:06;102675.53;;;18.76;59.55
8398;BME280;4236;54.504;9.588;2023-05-20T12:28:35;102700.22;;;18.53;61.03
8398;BME280;4236;54.504;9.588;2023-05-20T12:31:03;102675.19;;;18.99;61.70
8398;BME280;4236;54.504;9.588;2023-05-20T12:33:31;102674.75;;;18.95;61.56
8398;BME280;4236;54.504;9.588;2023-05-20T12:35:59;102677.69;;;18.46;60.84
8398;BME280;4236;54.504;9.588;2023-05-20T12:38:26;102653.94;;;18.29;59.15
8398;BME280;4236;54.504;9.588;2023-05-20T12:40:54;102665.78;;;18.28;59.37
8398;BME280;4236;54.504;9.588;2023-05-20T12:43:22;102670.91;;;18.50;58.98
8398;BME280;4236;54.504;9.588;2023-05-20T12:45:51;102678.69;;;18.32;60.13
8398;BME280;4236;54.504;9.588;2023-05-20T12:48:19;102620.72;;;18.35;60.40
8398;BME280;4236;54.504;9.588;2023-05-20T12:50:46;102657.63;;;18.14;61.32
8398;BME280;4236;54.504;9.588;2023-05-20T12:53:14;102649.34;;;18.22;61.87
8398;BME280;4236;54.504;9.588;2023-05-20T12:55:42;102644.69;;;18.03;61.03
8398;BME280;4236;54.504;9.588;2023-05-20T12:58:09;102638.16;;;18.32;62.36
8398;BME280;4236;54.504;9.588;2023-05-20T13:00:37;102634.28;;;18.48;63.07
8398;BME280;4236;54.504;9.588;2023-05-20T13:03:06;102627.72;;;18.22;61.17
8398;BME280;4236;54.504;9.588;2023-05-20T13:05:34;102642.81;;;18.04;61.98
8398;BME280;4236;54.504;9.588;2023-05-20T13:08:02;102645.44;;;18.32;62.87
8398;BME280;4236;54.504;9.588;2023-05-20T13:10:29;102633.69;;;18.05;63.41
8398;BME280;4236;54.504;9.588;2023-05-20T13:12:57;102652.69;;;17.90;64.06
8398;BME280;4236;54.504;9.588;2023-05-20T13:15:25;102646.81;;;18.14;67.18
8398;BME280;4236;54.504;9.588;2023-05-20T13:17:53;102638.72;;;18.14;67.21